Peru, Vermont
Current Conditions -  °F | °C
As of 8:54 AM on Friday 24 Oct 2014 (Local Time) from KVSF Reporting Station
Light Rain Light Rain  
Wind Chill: 41°   Ceiling: 2100
Heat Index: 44°   Visibility: 10mi
Dew Point: 40°   Wind: 6mph
Humidity: 85%   Direction: 290°WNW
Pressure: 29.79"   Gusts: NA
Location:  43.23°N, 72.9°W
Report Text: KVSF 241254Z AUTO 29005KT 10SM -RA OVC021 07/04 A2979 RMK AO2 RAB44 SLP092 P0000 T00670044
Loading
Personal Weather Stations






























Interactive Weather Map
Tropical Storm Tracking
New forecast layout! Learn more

10-Day Weather Forecast

Advertisements
Track Severe Weather on mobile